sensor_id;sensor_type;location;lat;lon;timestamp;temperature;humidity
30308;DHT22;17114;52.314;8.910;2023-04-06T00:01:59;1.40;99.90
30308;DHT22;17114;52.314;8.910;2023-04-06T00:04:28;1.30;99.90
30308;DHT22;17114;52.314;8.910;2023-04-06T00:06:56;1.30;99.90
30308;DHT22;17114;52.314;8.910;2023-04-06T00:09:24;1.30;99.90
30308;DHT22;17114;52.314;8.910;2023-04-06T00:11:57;1.30;99.90
30308;DHT22;17114;52.314;8.910;2023-04-06T00:14:25;1.30;99.90
30308;DHT22;17114;52.314;8.910;2023-04-06T00:16:52;1.30;99.90
30308;DHT22;17114;52.314;8.910;2023-04-06T00:19:34;1.20;99.90
30308;DHT22;17114;52.314;8.910;2023-04-06T00:22:02;1.10;99.90
30308;DHT22;17114;52.314;8.910;2023-04-06T00:24:30;1.10;99.90
30308;DHT22;17114;52.314;8.910;2023-04-06T00:26:59;1.10;99.90
30308;DHT22;17114;52.314;8.910;2023-04-06T00:29:28;1.10;99.90
30308;DHT22;17114;52.314;8.910;2023-04-06T00:31:56;1.00;99.90
30308;DHT22;17114;52.314;8.910;2023-04-06T00:34:23;1.00;99.90
30308;DHT22;17114;52.314;8.910;2023-04-06T00:36:51;1.00;99.90
30308;DHT22;17114;52.314;8.910;2023-04-06T00:39:18;0.90;99.90
30308;DHT22;17114;52.314;8.910;2023-04-06T00:41:51;0.90;99.90
30308;DHT22;17114;52.314;8.910;2023-04-06T00:44:19;0.90;99.90
30308;DHT22;17114;52.314;8.910;2023-04-06T00:46:48;0.90;99.90
30308;DHT22;17114;52.314;8.910;2023-04-06T00:49:16;0.80;99.90
30308;DHT22;17114;52.314;8.910;2023-04-06T00:51:44;0.80;99.90
30308;DHT22;17114;52.314;8.910;2023-04-06T00:54:11;0.80;99.90
30308;DHT22;17114;52.314;8.910;2023-04-06T00:56:39;0.90;99.90
30308;DHT22;17114;52.314;8.910;2023-04-06T00:59:08;0.90;99.90
30308;DHT22;17114;52.314;8.910;2023-04-06T01:01:37;1.00;99.90
30308;DHT22;17114;52.314;8.910;2023-04-06T01:04:05;1.10;99.90
30308;DHT22;17114;52.314;8.910;2023-04-06T01:06:32;1.10;99.90
30308;DHT22;17114;52.314;8.910;2023-04-06T01:09:00;1.20;99.90
30308;DHT22;17114;52.314;8.910;2023-04-06T01:11:28;1.20;99.90
30308;DHT22;17114;52.314;8.910;2023-04-06T01:13:55;1.20;99.90
30308;DHT22;17114;52.314;8.910;2023-04-06T01:16:24;1.20;99.90
30308;DHT22;17114;52.314;8.910;2023-04-06T01:18:53;1.20;99.90
30308;DHT22;17114;52.314;8.910;2023-04-06T01:21:22;1.20;99.90
30308;DHT22;17114;52.314;8.910;2023-04-06T01:23:50;1.10;99.90
30308;DHT22;17114;52.314;8.910;2023-04-06T01:26:18;1.10;99.90
30308;DHT22;17114;52.314;8.910;2023-04-06T01:29:01;1.10;99.90
30308;DHT22;17114;52.314;8.910;2023-04-06T01:31:31;1.10;99.90
30308;DHT22;17114;52.314;8.910;2023-04-06T01:33:59;1.00;99.90
30308;DHT22;17114;52.314;8.910;2023-04-06T01:36:27;1.00;99.90
30308;DHT22;17114;52.314;8.910;2023-04-06T01:38:54;1.00;99.90
30308;DHT22;17114;52.314;8.910;2023-04-06T01:41:22;1.00;99.90
30308;DHT22;17114;52.314;8.910;2023-04-06T01:43:49;1.00;99.90
30308;DHT22;17114;52.314;8.910;2023-04-06T01:46:16;1.10;99.90
30308;DHT22;17114;52.314;8.910;2023-04-06T01:48:43;1.20;99.90
30308;DHT22;17114;52.314;8.910;2023-04-06T01:51:11;1.30;99.90
30308;DHT22;17114;52.314;8.910;2023-04-06T01:53:39;1.40;99.90
30308;DHT22;17114;52.314;8.910;2023-04-06T01:56:06;1.40;99.90
30308;DHT22;17114;52.314;8.910;2023-04-06T01:58:33;1.50;99.90
30308;DHT22;17114;52.314;8.910;2023-04-06T02:01:01;1.50;99.90
30308;DHT22;17114;52.314;8.910;2023-04-06T02:05:59;1.60;99.90
30308;DHT22;17114;52.314;8.910;2023-04-06T02:08:26;1.60;99.90
30308;DHT22;17114;52.314;8.910;2023-04-06T02:10:53;1.60;99.90
30308;DHT22;17114;52.314;8.910;2023-04-06T02:13:20;1.60;99.90
30308;DHT22;17114;52.314;8.910;2023-04-06T02:15:47;1.60;99.90
30308;DHT22;17114;52.314;8.910;2023-04-06T02:18:14;1.60;99.90
30308;DHT22;17114;52.314;8.910;2023-04-06T02:20:41;1.60;99.90
30308;DHT22;17114;52.314;8.910;2023-04-06T02:23:08;1.40;99.90
30308;DHT22;17114;52.314;8.910;2023-04-06T02:25:35;1.40;99.90
30308;DHT22;17114;52.314;8.910;2023-04-06T02:28:02;1.40;99.90
30308;DHT22;17114;52.314;8.910;2023-04-06T02:30:30;1.40;99.90
30308;DHT22;17114;52.314;8.910;2023-04-06T02:33:02;1.30;99.90
30308;DHT22;17114;52.314;8.910;2023-04-06T02:35:30;1.30;99.90
30308;DHT22;17114;52.314;8.910;2023-04-06T02:37:57;1.30;99.90
30308;DHT22;17114;52.314;8.910;2023-04-06T02:40:24;1.40;99.90
30308;DHT22;17114;52.314;8.910;2023-04-06T02:42:51;1.30;99.90
30308;DHT22;17114;52.314;8.910;2023-04-06T02:45:19;1.30;99.90
30308;DHT22;17114;52.314;8.910;2023-04-06T02:47:46;1.40;99.90
30308;DHT22;17114;52.314;8.910;2023-04-06T02:50:13;1.40;99.90
30308;DHT22;17114;52.314;8.910;2023-04-06T02:52:41;1.50;99.90
30308;DHT22;17114;52.314;8.910;2023-04-06T02:55:08;1.50;99.90
30308;DHT22;17114;52.314;8.910;2023-04-06T02:57:35;1.50;99.90
30308;DHT22;17114;52.314;8.910;2023-04-06T03:00:02;1.40;99.90
30308;DHT22;17114;52.314;8.910;2023-04-06T03:02:29;1.30;99.90
30308;DHT22;17114;52.314;8.910;2023-04-06T03:04:56;1.20;99.90
30308;DHT22;17114;52.314;8.910;2023-04-06T03:07:23;1.20;99.90
30308;DHT22;17114;52.314;8.910;2023-04-06T03:09:50;1.10;99.90
30308;DHT22;17114;52.314;8.910;2023-04-06T03:12:17;1.10;99.90
30308;DHT22;17114;52.314;8.910;2023-04-06T03:14:44;1.10;99.90
30308;DHT22;17114;52.314;8.910;2023-04-06T03:17:11;1.20;99.90
30308;DHT22;17114;52.314;8.910;2023-04-06T03:19:38;1.20;99.90
30308;DHT22;17114;52.314;8.910;2023-04-06T03:22:05;1.20;99.90
30308;DHT22;17114;52.314;8.910;2023-04-06T03:24:32;1.30;99.90
30308;DHT22;17114;52.314;8.910;2023-04-06T03:26:59;1.30;99.90
30308;DHT22;17114;52.314;8.910;2023-04-06T03:29:26;1.40;99.90
30308;DHT22;17114;52.314;8.910;2023-04-06T03:31:53;1.50;99.90
30308;DHT22;17114;52.314;8.910;2023-04-06T03:34:21;1.50;99.90
30308;DHT22;17114;52.314;8.910;2023-04-06T03:36:47;1.50;99.90
30308;DHT22;17114;52.314;8.910;2023-04-06T03:39:28;1.50;99.90
30308;DHT22;17114;52.314;8.910;2023-04-06T03:41:55;1.50;99.90
30308;DHT22;17114;52.314;8.910;2023-04-06T03:44:22;1.50;99.90
30308;DHT22;17114;52.314;8.910;2023-04-06T03:46:49;1.60;99.90
30308;DHT22;17114;52.314;8.910;2023-04-06T03:49:16;1.60;99.90
30308;DHT22;17114;52.314;8.910;2023-04-06T03:51:43;1.60;99.90
30308;DHT22;17114;52.314;8.910;2023-04-06T03:54:10;1.60;99.90
30308;DHT22;17114;52.314;8.910;2023-04-06T03:56:37;1.60;99.90
30308;DHT22;17114;52.314;8.910;2023-04-06T03:59:08;1.70;99.90
30308;DHT22;17114;52.314;8.910;2023-04-06T04:01:35;1.70;99.90
30308;DHT22;17114;52.314;8.910;2023-04-06T04:04:02;1.70;99.90
30308;DHT22;17114;52.314;8.910;2023-04-06T04:06:30;1.70;99.90
30308;DHT22;17114;52.314;8.910;2023-04-06T04:08:57;1.70;99.90
30308;DHT22;17114;52.314;8.910;2023-04-06T04:11:24;1.60;99.90
30308;DHT22;17114;52.314;8.910;2023-04-06T04:13:52;1.70;99.90
30308;DHT22;17114;52.314;8.910;2023-04-06T04:16:19;1.60;99.90
30308;DHT22;17114;52.314;8.910;2023-04-06T04:18:46;1.60;99.90
30308;DHT22;17114;52.314;8.910;2023-04-06T04:21:15;1.60;99.90
30308;DHT22;17114;52.314;8.910;2023-04-06T04:23:42;1.70;99.90
30308;DHT22;17114;52.314;8.910;2023-04-06T04:26:09;1.70;99.90
30308;DHT22;17114;52.314;8.910;2023-04-06T04:28:35;1.70;99.90
30308;DHT22;17114;52.314;8.910;2023-04-06T04:31:02;1.60;99.90
30308;DHT22;17114;52.314;8.910;2023-04-06T04:33:29;1.60;99.90
30308;DHT22;17114;52.314;8.910;2023-04-06T04:35:56;1.50;99.90
30308;DHT22;17114;52.314;8.910;2023-04-06T04:38:23;1.60;99.90
30308;DHT22;17114;52.314;8.910;2023-04-06T04:40:50;1.60;99.90
30308;DHT22;17114;52.314;8.910;2023-04-06T04:43:17;1.60;99.90
30308;DHT22;17114;52.314;8.910;2023-04-06T04:45:44;1.70;99.90
30308;DHT22;17114;52.314;8.910;2023-04-06T04:48:11;1.80;99.90
30308;DHT22;17114;52.314;8.910;2023-04-06T04:50:38;1.80;99.90
30308;DHT22;17114;52.314;8.910;2023-04-06T04:53:05;1.90;99.90
30308;DHT22;17114;52.314;8.910;2023-04-06T04:55:33;1.90;99.90
30308;DHT22;17114;52.314;8.910;2023-04-06T04:57:59;1.90;99.90
30308;DHT22;17114;52.314;8.910;2023-04-06T05:00:26;1.90;99.90
30308;DHT22;17114;52.314;8.910;2023-04-06T05:02:53;2.00;99.90
30308;DHT22;17114;52.314;8.910;2023-04-06T05:05:20;2.00;99.90
30308;DHT22;17114;52.314;8.910;2023-04-06T05:07:47;2.00;99.90
30308;DHT22;17114;52.314;8.910;2023-04-06T05:10:14;2.00;99.90
30308;DHT22;17114;52.314;8.910;2023-04-06T05:12:41;2.00;99.90
30308;DHT22;17114;52.314;8.910;2023-04-06T05:15:09;2.10;99.90
30308;DHT22;17114;52.314;8.910;2023-04-06T05:17:36;2.10;99.90
30308;DHT22;17114;52.314;8.910;2023-04-06T05:20:04;2.20;99.90
30308;DHT22;17114;52.314;8.910;2023-04-06T05:22:31;2.20;99.90
30308;DHT22;17114;52.314;8.910;2023-04-06T05:24:58;2.30;99.90
30308;DHT22;17114;52.314;8.910;2023-04-06T05:27:25;2.50;99.90
30308;DHT22;17114;52.314;8.910;2023-04-06T05:29:52;2.60;99.90
30308;DHT22;17114;52.314;8.910;2023-04-06T05:32:21;2.80;99.90
30308;DHT22;17114;52.314;8.910;2023-04-06T05:34:51;3.00;99.90
30308;DHT22;17114;52.314;8.910;2023-04-06T05:37:18;3.10;99.90
30308;DHT22;17114;52.314;8.910;2023-04-06T05:39:45;3.30;99.90
30308;DHT22;17114;52.314;8.910;2023-04-06T05:42:12;3.50;99.90
30308;DHT22;17114;52.314;8.910;2023-04-06T05:44:39;3.80;99.90
30308;DHT22;17114;52.314;8.910;2023-04-06T05:47:06;4.10;99.90
30308;DHT22;17114;52.314;8.910;2023-04-06T05:49:33;4.50;99.90
30308;DHT22;17114;52.314;8.910;2023-04-06T05:52:01;4.80;99.90
30308;DHT22;17114;52.314;8.910;2023-04-06T05:54:28;5.20;99.90
30308;DHT22;17114;52.314;8.910;2023-04-06T05:56:55;5.60;99.90
30308;DHT22;17114;52.314;8.910;2023-04-06T05:59:22;5.90;99.90
30308;DHT22;17114;52.314;8.910;2023-04-06T06:01:50;6.20;99.90
30308;DHT22;17114;52.314;8.910;2023-04-06T06:04:17;6.40;99.90
30308;DHT22;17114;52.314;8.910;2023-04-06T06:06:45;6.60;99.90
30308;DHT22;17114;52.314;8.910;2023-04-06T06:09:12;6.90;99.90
30308;DHT22;17114;52.314;8.910;2023-04-06T06:11:40;7.10;99.90
30308;DHT22;17114;52.314;8.910;2023-04-06T06:14:07;7.30;99.90
30308;DHT22;17114;52.314;8.910;2023-04-06T06:16:37;7.40;99.90
30308;DHT22;17114;52.314;8.910;2023-04-06T06:19:05;7.50;99.90
30308;DHT22;17114;52.314;8.910;2023-04-06T06:21:32;7.80;99.90
30308;DHT22;17114;52.314;8.910;2023-04-06T06:23:59;8.20;99.90
30308;DHT22;17114;52.314;8.910;2023-04-06T06:26:27;8.50;99.90
30308;DHT22;17114;52.314;8.910;2023-04-06T06:28:54;8.60;99.90
30308;DHT22;17114;52.314;8.910;2023-04-06T06:31:21;8.80;99.90
30308;DHT22;17114;52.314;8.910;2023-04-06T06:33:49;8.90;99.90
30308;DHT22;17114;52.314;8.910;2023-04-06T06:36:18;9.10;99.90
30308;DHT22;17114;52.314;8.910;2023-04-06T06:38:45;9.40;99.90
30308;DHT22;17114;52.314;8.910;2023-04-06T06:41:12;9.70;99.90
30308;DHT22;17114;52.314;8.910;2023-04-06T06:43:39;9.90;99.90
30308;DHT22;17114;52.314;8.910;2023-04-06T06:46:06;10.10;99.90
30308;DHT22;17114;52.314;8.910;2023-04-06T06:48:33;10.40;99.90
30308;DHT22;17114;52.314;8.910;2023-04-06T06:51:01;10.70;99.90
30308;DHT22;17114;52.314;8.910;2023-04-06T06:53:28;10.40;99.90
30308;DHT22;17114;52.314;8.910;2023-04-06T06:55:55;10.70;99.90
30308;DHT22;17114;52.314;8.910;2023-04-06T06:58:22;11.20;99.90
30308;DHT22;17114;52.314;8.910;2023-04-06T07:00:59;11.20;99.90
30308;DHT22;17114;52.314;8.910;2023-04-06T07:03:26;11.30;99.90
30308;DHT22;17114;52.314;8.910;2023-04-06T07:05:53;11.50;99.90
30308;DHT22;17114;52.314;8.910;2023-04-06T07:08:21;11.40;99.90
30308;DHT22;17114;52.314;8.910;2023-04-06T07:10:50;11.30;99.90
30308;DHT22;17114;52.314;8.910;2023-04-06T07:13:20;11.80;99.90
30308;DHT22;17114;52.314;8.910;2023-04-06T07:15:51;11.80;99.90
30308;DHT22;17114;52.314;8.910;2023-04-06T07:18:19;11.90;99.90
30308;DHT22;17114;52.314;8.910;2023-04-06T07:20:47;11.90;99.90
30308;DHT22;17114;52.314;8.910;2023-04-06T07:23:14;11.70;99.90
30308;DHT22;17114;52.314;8.910;2023-04-06T07:25:42;11.80;99.90
30308;DHT22;17114;52.314;8.910;2023-04-06T07:28:09;12.20;99.90
30308;DHT22;17114;52.314;8.910;2023-04-06T07:30:37;12.70;99.90
30308;DHT22;17114;52.314;8.910;2023-04-06T07:33:05;13.10;99.90
30308;DHT22;17114;52.314;8.910;2023-04-06T07:35:32;13.30;99.90
30308;DHT22;17114;52.314;8.910;2023-04-06T07:37:59;13.30;99.40
30308;DHT22;17114;52.314;8.910;2023-04-06T07:40:26;13.40;99.70
30308;DHT22;17114;52.314;8.910;2023-04-06T07:42:54;13.30;98.60
30308;DHT22;17114;52.314;8.910;2023-04-06T07:45:23;13.30;99.90
30308;DHT22;17114;52.314;8.910;2023-04-06T07:47:50;13.60;98.80
30308;DHT22;17114;52.314;8.910;2023-04-06T07:50:17;13.60;98.90
30308;DHT22;17114;52.314;8.910;2023-04-06T07:52:44;13.80;97.50
30308;DHT22;17114;52.314;8.910;2023-04-06T07:55:11;13.50;97.60
30308;DHT22;17114;52.314;8.910;2023-04-06T07:57:38;13.20;98.30
30308;DHT22;17114;52.314;8.910;2023-04-06T08:00:05;13.30;97.90
30308;DHT22;17114;52.314;8.910;2023-04-06T08:02:33;13.30;97.40
30308;DHT22;17114;52.314;8.910;2023-04-06T08:05:00;13.40;97.80
30308;DHT22;17114;52.314;8.910;2023-04-06T08:07:27;13.70;97.60
30308;DHT22;17114;52.314;8.910;2023-04-06T08:09:54;13.60;96.80
30308;DHT22;17114;52.314;8.910;2023-04-06T08:12:22;13.40;96.60
30308;DHT22;17114;52.314;8.910;2023-04-06T08:14:49;13.60;97.40
30308;DHT22;17114;52.314;8.910;2023-04-06T08:17:16;13.90;96.10
30308;DHT22;17114;52.314;8.910;2023-04-06T08:19:43;14.10;95.80
30308;DHT22;17114;52.314;8.910;2023-04-06T08:22:11;14.20;96.30
30308;DHT22;17114;52.314;8.910;2023-04-06T08:24:38;14.60;95.50
30308;DHT22;17114;52.314;8.910;2023-04-06T08:27:05;14.70;95.20
30308;DHT22;17114;52.314;8.910;2023-04-06T08:29:32;14.90;93.90
30308;DHT22;17114;52.314;8.910;2023-04-06T08:32:00;14.80;95.00
30308;DHT22;17114;52.314;8.910;2023-04-06T08:34:29;15.00;93.30
30308;DHT22;17114;52.314;8.910;2023-04-06T08:36:56;14.80;93.30
30308;DHT22;17114;52.314;8.910;2023-04-06T08:39:23;15.00;93.00
30308;DHT22;17114;52.314;8.910;2023-04-06T08:41:52;14.90;92.50
30308;DHT22;17114;52.314;8.910;2023-04-06T08:44:23;14.50;92.90
30308;DHT22;17114;52.314;8.910;2023-04-06T08:46:51;14.30;93.00
30308;DHT22;17114;52.314;8.910;2023-04-06T08:49:19;14.50;93.70
30308;DHT22;17114;52.314;8.910;2023-04-06T08:51:47;14.70;93.10
30308;DHT22;17114;52.314;8.910;2023-04-06T08:54:14;14.90;92.60
30308;DHT22;17114;52.314;8.910;2023-04-06T08:56:41;14.90;92.30
30308;DHT22;17114;52.314;8.910;2023-04-06T08:59:09;14.90;92.10
30308;DHT22;17114;52.314;8.910;2023-04-06T09:01:39;15.00;92.20
30308;DHT22;17114;52.314;8.910;2023-04-06T09:04:08;15.20;93.90
30308;DHT22;17114;52.314;8.910;2023-04-06T09:06:39;15.60;91.50
30308;DHT22;17114;52.314;8.910;2023-04-06T09:09:07;16.00;90.70
30308;DHT22;17114;52.314;8.910;2023-04-06T09:11:45;15.80;90.30
30308;DHT22;17114;52.314;8.910;2023-04-06T09:14:12;15.80;88.30
30308;DHT22;17114;52.314;8.910;2023-04-06T09:16:41;15.40;90.30
30308;DHT22;17114;52.314;8.910;2023-04-06T09:19:09;15.50;90.10
30308;DHT22;17114;52.314;8.910;2023-04-06T09:21:36;15.20;91.00
30308;DHT22;17114;52.314;8.910;2023-04-06T09:24:04;15.20;88.40
30308;DHT22;17114;52.314;8.910;2023-04-06T09:26:31;15.60;89.30
30308;DHT22;17114;52.314;8.910;2023-04-06T09:29:00;15.50;88.10
30308;DHT22;17114;52.314;8.910;2023-04-06T09:31:30;15.60;89.40
30308;DHT22;17114;52.314;8.910;2023-04-06T09:34:00;15.70;89.90
30308;DHT22;17114;52.314;8.910;2023-04-06T09:36:35;15.90;86.50
30308;DHT22;17114;52.314;8.910;2023-04-06T09:39:05;15.70;87.20
30308;DHT22;17114;52.314;8.910;2023-04-06T09:41:36;15.50;86.50
30308;DHT22;17114;52.314;8.910;2023-04-06T09:44:08;15.60;88.20
30308;DHT22;17114;52.314;8.910;2023-04-06T09:46:41;15.50;85.70
30308;DHT22;17114;52.314;8.910;2023-04-06T09:49:24;15.80;88.60
30308;DHT22;17114;52.314;8.910;2023-04-06T09:52:01;15.80;87.40
30308;DHT22;17114;52.314;8.910;2023-04-06T09:54:30;15.80;87.00
30308;DHT22;17114;52.314;8.910;2023-04-06T09:57:11;15.80;87.30
30308;DHT22;17114;52.314;8.910;2023-04-06T09:59:50;16.00;88.50
30308;DHT22;17114;52.314;8.910;2023-04-06T10:07:51;16.00;82.90
30308;DHT22;17114;52.314;8.910;2023-04-06T10:10:28;15.60;84.00
30308;DHT22;17114;52.314;8.910;2023-04-06T10:12:56;16.00;82.40
30308;DHT22;17114;52.314;8.910;2023-04-06T10:15:23;16.30;84.00
30308;DHT22;17114;52.314;8.910;2023-04-06T10:17:54;16.70;86.10
30308;DHT22;17114;52.314;8.910;2023-04-06T10:20:27;16.80;80.50
30308;DHT22;17114;52.314;8.910;2023-04-06T10:25:57;16.20;76.60
30308;DHT22;17114;52.314;8.910;2023-04-06T10:28:30;15.80;79.70
30308;DHT22;17114;52.314;8.910;2023-04-06T10:30:59;15.70;77.40
30308;DHT22;17114;52.314;8.910;2023-04-06T10:33:28;15.90;79.40
30308;DHT22;17114;52.314;8.910;2023-04-06T10:36:41;15.50;78.30
30308;DHT22;17114;52.314;8.910;2023-04-06T10:38:45;15.50;79.00
30308;DHT22;17114;52.314;8.910;2023-04-06T10:41:13;15.80;80.40
30308;DHT22;17114;52.314;8.910;2023-04-06T10:43:44;15.70;75.70
30308;DHT22;17114;52.314;8.910;2023-04-06T10:46:28;15.60;76.60
30308;DHT22;17114;52.314;8.910;2023-04-06T10:48:56;15.60;77.50
30308;DHT22;17114;52.314;8.910;2023-04-06T10:51:27;15.60;77.80
30308;DHT22;17114;52.314;8.910;2023-04-06T10:53:55;15.70;77.60
30308;DHT22;17114;52.314;8.910;2023-04-06T10:56:24;15.60;75.20
30308;DHT22;17114;52.314;8.910;2023-04-06T10:58:56;15.40;77.30
30308;DHT22;17114;52.314;8.910;2023-04-06T11:01:24;15.80;78.50
30308;DHT22;17114;52.314;8.910;2023-04-06T11:03:56;15.80;78.10
30308;DHT22;17114;52.314;8.910;2023-04-06T11:06:29;15.70;73.90
30308;DHT22;17114;52.314;8.910;2023-04-06T11:08:58;15.80;74.70
30308;DHT22;17114;52.314;8.910;2023-04-06T11:11:26;15.70;73.20
30308;DHT22;17114;52.314;8.910;2023-04-06T11:13:58;15.60;74.30
30308;DHT22;17114;52.314;8.910;2023-04-06T11:16:27;15.70;77.30
30308;DHT22;17114;52.314;8.910;2023-04-06T11:18:55;15.80;73.30
30308;DHT22;17114;52.314;8.910;2023-04-06T11:21:46;15.70;75.00
30308;DHT22;17114;52.314;8.910;2023-04-06T11:24:24;15.50;74.90
30308;DHT22;17114;52.314;8.910;2023-04-06T11:26:54;15.50;74.10
30308;DHT22;17114;52.314;8.910;2023-04-06T11:29:29;15.60;74.20
30308;DHT22;17114;52.314;8.910;2023-04-06T11:32:00;15.60;76.80
30308;DHT22;17114;52.314;8.910;2023-04-06T11:34:48;15.90;73.40
30308;DHT22;17114;52.314;8.910;2023-04-06T11:37:15;15.90;74.60
30308;DHT22;17114;52.314;8.910;2023-04-06T11:39:50;15.80;77.00
30308;DHT22;17114;52.314;8.910;2023-04-06T11:42:23;15.90;76.80
30308;DHT22;17114;52.314;8.910;2023-04-06T11:44:53;16.00;76.20
30308;DHT22;17114;52.314;8.910;2023-04-06T11:47:30;15.90;76.10
30308;DHT22;17114;52.314;8.910;2023-04-06T11:50:12;15.90;75.60
30308;DHT22;17114;52.314;8.910;2023-04-06T11:52:41;16.00;76.30
30308;DHT22;17114;52.314;8.910;2023-04-06T11:55:14;16.00;76.10
30308;DHT22;17114;52.314;8.910;2023-04-06T11:57:43;15.60;79.40
30308;DHT22;17114;52.314;8.910;2023-04-06T12:00:10;15.90;81.70
30308;DHT22;17114;52.314;8.910;2023-04-06T12:02:38;15.90;83.70
30308;DHT22;17114;52.314;8.910;2023-04-06T12:05:06;15.70;76.80
30308;DHT22;17114;52.314;8.910;2023-04-06T12:07:33;15.80;80.40
30308;DHT22;17114;52.314;8.910;2023-04-06T12:10:02;16.00;78.80
30308;DHT22;17114;52.314;8.910;2023-04-06T12:12:29;15.80;76.60
30308;DHT22;17114;52.314;8.910;2023-04-06T12:14:57;15.60;78.10
30308;DHT22;17114;52.314;8.910;2023-04-06T12:17:24;15.60;77.50
30308;DHT22;17114;52.314;8.910;2023-04-06T12:19:52;15.70;76.90
30308;DHT22;17114;52.314;8.910;2023-04-06T12:22:19;15.60;77.90
30308;DHT22;17114;52.314;8.910;2023-04-06T12:24:47;15.60;79.00
30308;DHT22;17114;52.314;8.910;2023-04-06T12:27:14;15.70;80.40
30308;DHT22;17114;52.314;8.910;2023-04-06T12:29:42;15.70;77.90
30308;DHT22;17114;52.314;8.910;2023-04-06T12:32:09;15.90;80.20
30308;DHT22;17114;52.314;8.910;2023-04-06T12:34:39;16.00;80.10
30308;DHT22;17114;52.314;8.910;2023-04-06T12:37:07;15.90;80.30
30308;DHT22;17114;52.314;8.910;2023-04-06T12:39:34;15.60;76.70
30308;DHT22;17114;52.314;8.910;2023-04-06T12:42:01;15.60;78.70
30308;DHT22;17114;52.314;8.910;2023-04-06T12:44:29;15.70;77.30
30308;DHT22;17114;52.314;8.910;2023-04-06T12:46:56;15.70;78.10
30308;DHT22;17114;52.314;8.910;2023-04-06T12:49:24;15.80;83.30
30308;DHT22;17114;52.314;8.910;2023-04-06T12:51:52;15.90;78.10
30308;DHT22;17114;52.314;8.910;2023-04-06T12:54:20;15.70;79.80
30308;DHT22;17114;52.314;8.910;2023-04-06T12:56:47;15.70;78.60
30308;DHT22;17114;52.314;8.910;2023-04-06T12:59:17;15.80;77.90
30308;DHT22;17114;52.314;8.910;2023-04-06T13:01:48;15.70;78.70
30308;DHT22;17114;52.314;8.910;2023-04-06T13:04:15;15.80;79.80
30308;DHT22;17114;52.314;8.910;2023-04-06T13:06:42;15.90;78.50
30308;DHT22;17114;52.314;8.910;2023-04-06T13:09:10;15.90;79.00
30308;DHT22;17114;52.314;8.910;2023-04-06T13:11:37;15.70;76.20
30308;DHT22;17114;52.314;8.910;2023-04-06T13:14:11;15.50;76.60
30308;DHT22;17114;52.314;8.910;2023-04-06T13:16:43;15.30;79.80
30308;DHT22;17114;52.314;8.910;2023-04-06T13:19:11;15.30;76.90
30308;DHT22;17114;52.314;8.910;2023-04-06T13:21:39;15.20;80.00
30308;DHT22;17114;52.314;8.910;2023-04-06T13:24:06;15.20;76.70
30308;DHT22;17114;52.314;8.910;2023-04-06T13:26:34;15.10;78.30
30308;DHT22;17114;52.314;8.910;2023-04-06T13:29:01;15.20;78.50
30308;DHT22;17114;52.314;8.910;2023-04-06T13:31:29;15.10;79.00
30308;DHT22;17114;52.314;8.910;2023-04-06T13:33:57;15.10;78.00
30308;DHT22;17114;52.314;8.910;2023-04-06T13:36:25;15.10;77.30
30308;DHT22;17114;52.314;8.910;2023-04-06T13:38:53;15.20;80.70
30308;DHT22;17114;52.314;8.910;2023-04-06T13:41:23;15.20;79.30
30308;DHT22;17114;52.314;8.910;2023-04-06T13:43:50;15.20;77.20
30308;DHT22;17114;52.314;8.910;2023-04-06T13:46:18;15.00;76.80
30308;DHT22;17114;52.314;8.910;2023-04-06T13:48:45;14.90;77.30
30308;DHT22;17114;52.314;8.910;2023-04-06T13:51:14;15.00;75.60
30308;DHT22;17114;52.314;8.910;2023-04-06T13:53:41;14.90;75.70
30308;DHT22;17114;52.314;8.910;2023-04-06T13:56:08;14.90;77.10
30308;DHT22;17114;52.314;8.910;2023-04-06T13:58:36;15.00;78.20
30308;DHT22;17114;52.314;8.910;2023-04-06T14:01:07;15.00;78.50
30308;DHT22;17114;52.314;8.910;2023-04-06T14:03:40;15.10;76.70
30308;DHT22;17114;52.314;8.910;2023-04-06T14:06:13;15.00;77.90
30308;DHT22;17114;52.314;8.910;2023-04-06T14:08:43;14.90;75.00
30308;DHT22;17114;52.314;8.910;2023-04-06T14:11:13;14.80;78.40
30308;DHT22;17114;52.314;8.910;2023-04-06T14:13:41;14.80;77.70
30308;DHT22;17114;52.314;8.910;2023-04-06T14:16:09;14.80;77.60
30308;DHT22;17114;52.314;8.910;2023-04-06T14:18:36;14.70;77.70
30308;DHT22;17114;52.314;8.910;2023-04-06T14:21:04;14.70;79.00
30308;DHT22;17114;52.314;8.910;2023-04-06T14:23:31;14.70;79.40
30308;DHT22;17114;52.314;8.910;2023-04-06T14:26:04;14.90;76.80
30308;DHT22;17114;52.314;8.910;2023-04-06T14:28:33;14.70;77.90
30308;DHT22;17114;52.314;8.910;2023-04-06T14:31:10;14.60;78.50
30308;DHT22;17114;52.314;8.910;2023-04-06T14:33:42;14.60;77.50
30308;DHT22;17114;52.314;8.910;2023-04-06T14:36:09;14.50;78.90
30308;DHT22;17114;52.314;8.910;2023-04-06T14:38:37;14.50;78.50
30308;DHT22;17114;52.314;8.910;2023-04-06T14:41:05;14.40;78.80
30308;DHT22;17114;52.314;8.910;2023-04-06T14:43:32;14.40;78.20
30308;DHT22;17114;52.314;8.910;2023-04-06T14:46:02;14.50;78.30
30308;DHT22;17114;52.314;8.910;2023-04-06T14:48:29;14.50;76.60
30308;DHT22;17114;52.314;8.910;2023-04-06T14:50:57;14.40;77.10
30308;DHT22;17114;52.314;8.910;2023-04-06T14:53:24;14.40;77.60
30308;DHT22;17114;52.314;8.910;2023-04-06T14:55:52;14.40;76.40
30308;DHT22;17114;52.314;8.910;2023-04-06T14:58:20;14.40;76.10
30308;DHT22;17114;52.314;8.910;2023-04-06T15:00:48;14.30;77.20
30308;DHT22;17114;52.314;8.910;2023-04-06T15:03:15;14.30;76.20
30308;DHT22;17114;52.314;8.910;2023-04-06T15:05:44;14.30;77.40
30308;DHT22;17114;52.314;8.910;2023-04-06T15:08:11;14.30;75.40
30308;DHT22;17114;52.314;8.910;2023-04-06T15:10:40;14.20;75.50
30308;DHT22;17114;52.314;8.910;2023-04-06T15:13:07;14.20;76.10
30308;DHT22;17114;52.314;8.910;2023-04-06T15:15:34;14.30;76.10
30308;DHT22;17114;52.314;8.910;2023-04-06T15:18:02;14.20;75.00
30308;DHT22;17114;52.314;8.910;2023-04-06T15:20:29;14.20;75.50
30308;DHT22;17114;52.314;8.910;2023-04-06T15:22:56;14.20;70.30
30308;DHT22;17114;52.314;8.910;2023-04-06T15:25:23;14.10;68.40
30308;DHT22;17114;52.314;8.910;2023-04-06T15:27:50;14.10;67.40
30308;DHT22;17114;52.314;8.910;2023-04-06T15:30:17;14.00;67.30
30308;DHT22;17114;52.314;8.910;2023-04-06T15:32:59;13.90;68.20
30308;DHT22;17114;52.314;8.910;2023-04-06T15:35:27;13.70;66.50
30308;DHT22;17114;52.314;8.910;2023-04-06T15:37:58;13.70;66.70
30308;DHT22;17114;52.314;8.910;2023-04-06T15:40:25;13.70;68.50
30308;DHT22;17114;52.314;8.910;2023-04-06T15:42:53;13.60;68.30
30308;DHT22;17114;52.314;8.910;2023-04-06T15:45:20;13.70;67.80
30308;DHT22;17114;52.314;8.910;2023-04-06T15:47:48;13.60;68.50
30308;DHT22;17114;52.314;8.910;2023-04-06T15:50:15;13.60;68.10
30308;DHT22;17114;52.314;8.910;2023-04-06T15:52:42;13.60;67.60
30308;DHT22;17114;52.314;8.910;2023-04-06T15:55:09;13.60;69.90
30308;DHT22;17114;52.314;8.910;2023-04-06T15:57:36;13.50;71.40